Wetterdaten vom Freitag, 23. Februar 2018

Temperatur Taupunkt Windchill Luftfeuchte Luftdruck Solarstrahlung Regen ET
(Verdunstung von Wasser)
Wind
Max 0.5 °C
15:55
-6.4 °C
15:20
-8.1 °C
15:55
80%
07:55
1021.6 hPa
10:55
505 W/m²
12:45
29.6 km/h
13:05 km/h
Durchschnitt -2.9 °C -7.7 °C -13.6 °C 70% 1020.6 hPa 316 W/m² 0 mm 1.626 mm 20.7 km/h
Min -5.4 °C
07:15
-8.6 °C
06:00
-18.3 °C
07:20
55%
16:30
1019.8 hPa
05:20
19.3 km/h (Böe)
01:40 km/h
Zeit
00:00 -2.8 °C -7.7 °C -13.7 °C 69% 1021.1 hPa 0 W/m² 0.0 mm 0.000 mm 20.9 km/h
00:05 -2.8 °C -7.7 °C -13.9 °C 69% 1020.9 hPa 0 W/m² 0.0 mm 0.000 mm 21.4 km/h
00:10 -2.8 °C -7.7 °C -13.6 °C 69% 1021.0 hPa 0 W/m² 0.0 mm 0.000 mm 20.8 km/h
00:15 -2.9 °C -7.8 °C -13.7 °C 69% 1021.1 hPa 0 W/m² 0.0 mm 0.000 mm 20.7 km/h
00:20 -3.1 °C -7.8 °C -13.1 °C 70% 1021.0 hPa 0 W/m² 0.0 mm 0.000 mm 19.0 km/h
00:25 -3.1 °C -7.8 °C -12.9 °C 70% 1021.1 hPa 0 W/m² 0.0 mm 0.000 mm 18.6 km/h
00:30 -3.1 °C -7.8 °C -13.1 °C 70% 1021.1 hPa 0 W/m² 0.0 mm 0.000 mm 18.9 km/h
00:35 -3.2 °C -7.9 °C -13.4 °C 70% 1021.1 hPa 0 W/m² 0.0 mm 0.000 mm 19.3 km/h
00:40 -3.2 °C -7.9 °C -13.1 °C 70% 1021.0 hPa 0 W/m² 0.0 mm 0.000 mm 18.7 km/h
00:45 -3.2 °C -7.9 °C -13.1 °C 70% 1021.1 hPa 0 W/m² 0.0 mm 0.000 mm 18.8 km/h
00:50 -3.2 °C -7.9 °C -12.2 °C 70% 1020.9 hPa 0 W/m² 0.0 mm 0.000 mm 17.2 km/h
00:55 -3.3 °C -8.0 °C -13.2 °C 70% 1021.1 hPa 0 W/m² 0.0 mm 0.000 mm 18.6 km/h
01:00 -3.3 °C -7.8 °C -12.8 °C 71% 1020.9 hPa 0 W/m² 0.0 mm 0.025 mm 17.9 km/h
01:05 -3.4 °C -7.9 °C -12.6 °C 71% 1021.0 hPa 0 W/m² 0.0 mm 0.000 mm 17.4 km/h
01:10 -3.5 °C -7.8 °C -11.9 °C 72% 1020.9 hPa 0 W/m² 0.0 mm 0.000 mm 16.1 km/h
01:15 -3.6 °C -7.9 °C -12.2 °C 72% 1021.0 hPa 0 W/m² 0.0 mm 0.000 mm 16.3 km/h
01:20 -3.6 °C -7.9 °C -11.5 °C 72% 1020.8 hPa 0 W/m² 0.0 mm 0.000 mm 15.2 km/h
01:25 -3.7 °C -8.0 °C -11.9 °C 72% 1020.9 hPa 0 W/m² 0.0 mm 0.000 mm 15.6 km/h
01:30 -3.7 °C -8.0 °C -12.2 °C 72% 1020.9 hPa 0 W/m² 0.0 mm 0.000 mm 16.1 km/h
01:35 -3.6 °C -7.9 °C -12.1 °C 72% 1020.9 hPa 0 W/m² 0.0 mm 0.000 mm 16.2 km/h
01:40 -3.7 °C -8.0 °C -11.1 °C 72% 1020.9 hPa 0 W/m² 0.0 mm 0.000 mm 14.4 km/h
01:45 -3.7 °C -8.0 °C -12.3 °C 72% 1020.9 hPa 0 W/m² 0.0 mm 0.000 mm 16.3 km/h
01:50 -3.7 °C -8.0 °C -13.3 °C 72% 1020.9 hPa 0 W/m² 0.0 mm 0.000 mm 18.0 km/h
01:55 -3.8 °C -8.1 °C -13.0 °C 72% 1020.7 hPa 0 W/m² 0.0 mm 0.000 mm 17.2 km/h
02:00 -3.8 °C -8.1 °C -13.5 °C 72% 1020.8 hPa 0 W/m² 0.0 mm 0.026 mm 18.1 km/h
02:05 -3.9 °C -8.0 °C -13.3 °C 73% 1020.7 hPa 0 W/m² 0.0 mm 0.000 mm 17.5 km/h
02:10 -3.9 °C -8.0 °C -12.9 °C 73% 1020.7 hPa 0 W/m² 0.0 mm 0.000 mm 16.8 km/h
02:15 -3.9 °C -8.0 °C -13.8 °C 73% 1020.8 hPa 0 W/m² 0.0 mm 0.000 mm 18.4 km/h
02:20 -3.9 °C -8.0 °C -12.6 °C 73% 1020.7 hPa 0 W/m² 0.0 mm 0.000 mm 16.3 km/h
02:25 -3.9 °C -8.2 °C -13.6 °C 72% 1020.7 hPa 0 W/m² 0.0 mm 0.000 mm 18.0 km/h
02:30 -3.8 °C -8.1 °C -14.2 °C 72% 1020.6 hPa 0 W/m² 0.0 mm 0.000 mm 19.3 km/h
02:35 -3.9 °C -8.2 °C -14.4 °C 72% 1020.6 hPa 0 W/m² 0.0 mm 0.000 mm 19.5 km/h
02:40 -3.9 °C -8.2 °C -14.7 °C 72% 1020.4 hPa 0 W/m² 0.0 mm 0.000 mm 20.0 km/h
02:45 -3.9 °C -8.2 °C -14.6 °C 72% 1020.6 hPa 0 W/m² 0.0 mm 0.000 mm 19.8 km/h
02:50 -3.9 °C -8.2 °C -14.3 °C 72% 1020.4 hPa 0 W/m² 0.0 mm 0.000 mm 19.3 km/h
02:55 -3.8 °C -8.3 °C -15.5 °C 71% 1020.5 hPa 0 W/m² 0.0 mm 0.000 mm 21.9 km/h
03:00 -4.0 °C -8.3 °C -14.6 °C 72% 1020.3 hPa 0 W/m² 0.0 mm 0.025 mm 19.7 km/h
03:05 -4.1 °C -8.4 °C -14.0 °C 72% 1020.3 hPa 0 W/m² 0.0 mm 0.000 mm 18.3 km/h
03:10 -4.1 °C -8.4 °C -14.0 °C 72% 1020.4 hPa 0 W/m² 0.0 mm 0.000 mm 18.3 km/h
03:15 -4.1 °C -8.4 °C -14.8 °C 72% 1020.3 hPa 0 W/m² 0.0 mm 0.000 mm 19.7 km/h
03:20 -4.2 °C -8.3 °C -15.1 °C 73% 1020.3 hPa 0 W/m² 0.0 mm 0.000 mm 20.1 km/h
03:25 -4.1 °C -8.4 °C -15.1 °C 72% 1020.2 hPa 0 W/m² 0.0 mm 0.000 mm 20.3 km/h
03:30 -4.2 °C -8.3 °C -13.7 °C 73% 1020.2 hPa 0 W/m² 0.0 mm 0.000 mm 17.5 km/h
03:35 -4.3 °C -8.2 °C -14.0 °C 74% 1020.1 hPa 0 W/m² 0.0 mm 0.000 mm 17.9 km/h
03:40 -4.3 °C -8.2 °C -14.2 °C 74% 1020.2 hPa 0 W/m² 0.0 mm 0.000 mm 18.2 km/h
03:45 -4.3 °C -8.4 °C -15.6 °C 73% 1019.9 hPa 0 W/m² 0.0 mm 0.000 mm 20.8 km/h
03:50 -4.3 °C -8.4 °C -15.2 °C 73% 1020.1 hPa 0 W/m² 0.0 mm 0.000 mm 20.1 km/h
03:55 -4.4 °C -8.3 °C -14.6 °C 74% 1020.0 hPa 0 W/m² 0.0 mm 0.000 mm 18.7 km/h
04:00 -4.3 °C -8.2 °C -14.9 °C 74% 1020.0 hPa 0 W/m² 0.0 mm 0.026 mm 19.4 km/h
04:05 -4.4 °C -8.3 °C -14.4 °C 74% 1020.0 hPa 0 W/m² 0.0 mm 0.000 mm 18.4 km/h
04:10 -4.4 °C -8.3 °C -15.4 °C 74% 1020.1 hPa 0 W/m² 0.0 mm 0.000 mm 20.1 km/h
04:15 -4.4 °C -8.3 °C -15.8 °C 74% 1020.0 hPa 0 W/m² 0.0 mm 0.000 mm 20.9 km/h
04:20 -4.4 °C -8.3 °C -15.2 °C 74% 1020.0 hPa 0 W/m² 0.0 mm 0.000 mm 19.8 km/h
04:25 -4.5 °C -8.4 °C -15.6 °C 74% 1020.0 hPa 0 W/m² 0.0 mm 0.000 mm 20.3 km/h
04:30 -4.5 °C -8.4 °C -16.2 °C 74% 1020.1 hPa 0 W/m² 0.0 mm 0.000 mm 21.4 km/h
04:35 -4.5 °C -8.4 °C -15.6 °C 74% 1020.1 hPa 0 W/m² 0.0 mm 0.000 mm 20.3 km/h
04:40 -4.6 °C -8.5 °C -15.9 °C 74% 1020.0 hPa 0 W/m² 0.0 mm 0.000 mm 20.7 km/h
04:45 -4.7 °C -8.4 °C -15.0 °C 75% 1020.1 hPa 0 W/m² 0.0 mm 0.000 mm 18.7 km/h
04:50 -4.6 °C -8.5 °C -16.3 °C 74% 1020.1 hPa 0 W/m² 0.0 mm 0.000 mm 21.4 km/h
04:55 -4.7 °C -8.4 °C -15.9 °C 75% 1020.1 hPa 0 W/m² 0.0 mm 0.000 mm 20.4 km/h
05:00 -4.7 °C -8.4 °C -15.9 °C 75% 1020.0 hPa 0 W/m² 0.0 mm 0.025 mm 20.4 km/h
05:05 -4.7 °C -8.4 °C -16.1 °C 75% 1019.9 hPa 0 W/m² 0.0 mm 0.000 mm 20.8 km/h
05:10 -4.8 °C -8.5 °C -15.8 °C 75% 1020.0 hPa 0 W/m² 0.0 mm 0.000 mm 19.9 km/h
05:15 -4.8 °C -8.4 °C -14.8 °C 76% 1019.9 hPa 0 W/m² 0.0 mm 0.000 mm 18.1 km/h
05:20 -4.9 °C -8.5 °C -15.0 °C 76% 1019.8 hPa 0 W/m² 0.0 mm 0.000 mm 18.3 km/h
05:25 -5.0 °C -8.4 °C -14.2 °C 77% 1019.9 hPa 0 W/m² 0.0 mm 0.000 mm 16.7 km/h
05:30 -5.0 °C -8.4 °C -14.6 °C 77% 1019.9 hPa 0 W/m² 0.0 mm 0.000 mm 17.4 km/h
05:35 -5.1 °C -8.5 °C -14.5 °C 77% 1020.0 hPa 0 W/m² 0.0 mm 0.000 mm 17.1 km/h
05:40 -5.1 °C -8.5 °C -14.2 °C 77% 1020.0 hPa 0 W/m² 0.0 mm 0.000 mm 16.6 km/h
05:45 -5.1 °C -8.5 °C -15.8 °C 77% 1020.0 hPa 0 W/m² 0.0 mm 0.000 mm 19.3 km/h
05:50 -5.1 °C -8.5 °C -16.3 °C 77% 1020.1 hPa 0 W/m² 0.0 mm 0.000 mm 20.2 km/h
05:55 -5.1 °C -8.5 °C -16.4 °C 77% 1020.1 hPa 0 W/m² 0.0 mm 0.000 mm 20.3 km/h
06:00 -5.2 °C -8.6 °C -16.4 °C 77% 1020.0 hPa 0 W/m² 0.0 mm 0.025 mm 20.1 km/h
06:05 -5.2 °C -8.4 °C -15.9 °C 78% 1020.1 hPa 0 W/m² 0.0 mm 0.000 mm 19.1 km/h
06:10 -5.3 °C -8.5 °C -14.6 °C 78% 1020.2 hPa 0 W/m² 0.0 mm 0.000 mm 16.8 km/h
06:15 -5.3 °C -8.5 °C -15.8 °C 78% 1020.2 hPa 0 W/m² 0.0 mm 0.000 mm 18.7 km/h
06:20 -5.3 °C -8.5 °C -15.6 °C 78% 1020.2 hPa 0 W/m² 0.0 mm 0.000 mm 18.5 km/h
06:25 -5.2 °C -8.4 °C -16.7 °C 78% 1020.2 hPa 0 W/m² 0.0 mm 0.000 mm 20.7 km/h
06:30 -5.2 °C -8.4 °C -18.0 °C 78% 1020.1 hPa 0 W/m² 0.0 mm 0.000 mm 23.3 km/h
06:35 -5.2 °C -8.4 °C -16.7 °C 78% 1020.3 hPa 0 W/m² 0.0 mm 0.000 mm 20.6 km/h
06:40 -5.3 °C -8.5 °C -15.6 °C 78% 1020.1 hPa 0 W/m² 0.0 mm 0.000 mm 18.4 km/h
06:45 -5.3 °C -8.4 °C -15.5 °C 79% 1020.2 hPa 0 W/m² 0.0 mm 0.000 mm 18.2 km/h
06:50 -5.3 °C -8.5 °C -16.0 °C 78% 1020.4 hPa 0 W/m² 0.0 mm 0.000 mm 19.1 km/h
06:55 -5.3 °C -8.4 °C -15.7 °C 79% 1020.3 hPa 0 W/m² 0.0 mm 0.000 mm 18.6 km/h
07:00 -5.3 °C -8.4 °C -16.7 °C 79% 1020.3 hPa 0 W/m² 0.0 mm 0.026 mm 20.5 km/h
07:05 -5.3 °C -8.4 °C -16.4 °C 79% 1020.4 hPa 0 W/m² 0.0 mm 0.000 mm 19.8 km/h
07:10 -5.3 °C -8.4 °C -16.2 °C 79% 1020.6 hPa 0 W/m² 0.0 mm 0.000 mm 19.5 km/h
07:15 -5.4 °C -8.5 °C -15.5 °C 79% 1020.6 hPa 2 W/m² 0.0 mm 0.000 mm 18.0 km/h
07:20 -5.3 °C -8.4 °C -18.3 °C 79% 1020.6 hPa 6 W/m² 0.0 mm 0.000 mm 23.7 km/h
07:25 -5.3 °C -8.4 °C -17.0 °C 79% 1020.7 hPa 9 W/m² 0.0 mm 0.000 mm 21.0 km/h
07:30 -5.4 °C -8.5 °C -16.9 °C 79% 1020.7 hPa 12 W/m² 0.0 mm 0.000 mm 20.5 km/h
07:35 -5.3 °C -8.4 °C -18.0 °C 79% 1020.6 hPa 16 W/m² 0.0 mm 0.000 mm 23.0 km/h
07:40 -5.3 °C -8.4 °C -18.1 °C 79% 1020.6 hPa 19 W/m² 0.0 mm 0.000 mm 23.2 km/h
07:45 -5.3 °C -8.4 °C -17.8 °C 79% 1020.6 hPa 24 W/m² 0.0 mm 0.000 mm 22.6 km/h
07:50 -5.3 °C -8.4 °C -17.6 °C 79% 1020.7 hPa 29 W/m² 0.0 mm 0.000 mm 22.2 km/h
07:55 -5.3 °C -8.2 °C -15.8 °C 80% 1020.7 hPa 34 W/m² 0.0 mm 0.000 mm 18.8 km/h
08:00 -5.3 °C -8.2 °C -17.6 °C 80% 1020.7 hPa 41 W/m² 0.0 mm 0.025 mm 22.1 km/h
08:05 -5.3 °C -8.2 °C -17.3 °C 80% 1020.7 hPa 49 W/m² 0.0 mm 0.000 mm 21.5 km/h
08:10 -5.2 °C -8.3 °C -17.3 °C 79% 1020.6 hPa 57 W/m² 0.0 mm 0.000 mm 21.9 km/h
08:15 -5.2 °C -8.3 °C -17.3 °C 79% 1020.6 hPa 66 W/m² 0.0 mm 0.000 mm 21.9 km/h
08:20 -5.1 °C -8.2 °C -17.6 °C 79% 1020.5 hPa 78 W/m² 0.0 mm 0.000 mm 22.8 km/h
08:25 -5.1 °C -8.0 °C -17.0 °C 80% 1020.5 hPa 88 W/m² 0.0 mm 0.000 mm 21.4 km/h
08:30 -5.0 °C -8.1 °C -16.7 °C 79% 1020.5 hPa 100 W/m² 0.0 mm 0.000 mm 21.2 km/h
08:35 -4.9 °C -8.0 °C -16.7 °C 79% 1020.6 hPa 112 W/m² 0.0 mm 0.000 mm 21.4 km/h
08:40 -4.9 °C -8.0 °C -16.1 °C 79% 1020.6 hPa 126 W/m² 0.0 mm 0.000 mm 20.2 km/h
08:45 -4.8 °C -7.9 °C -15.6 °C 79% 1020.7 hPa 140 W/m² 0.0 mm 0.000 mm 19.5 km/h
08:50 -4.7 °C -7.9 °C -16.4 °C 78% 1020.7 hPa 153 W/m² 0.0 mm 0.000 mm 21.4 km/h
08:55 -4.6 °C -7.8 °C -15.9 °C 78% 1020.8 hPa 165 W/m² 0.0 mm 0.000 mm 20.6 km/h
09:00 -4.5 °C -7.7 °C -15.2 °C 78% 1020.8 hPa 179 W/m² 0.0 mm 0.051 mm 19.6 km/h
09:05 -4.4 °C -7.8 °C -15.5 °C 77% 1020.8 hPa 193 W/m² 0.0 mm 0.000 mm 20.3 km/h
09:10 -4.3 °C -7.5 °C -15.2 °C 78% 1020.8 hPa 207 W/m² 0.0 mm 0.000 mm 20.0 km/h
09:15 -4.2 °C -7.6 °C -15.4 °C 77% 1020.9 hPa 222 W/m² 0.0 mm 0.000 mm 20.7 km/h
09:20 -4.0 °C -7.4 °C -13.6 °C 77% 1020.9 hPa 235 W/m² 0.0 mm 0.000 mm 17.8 km/h
09:25 -3.9 °C -7.5 °C -14.1 °C 76% 1020.9 hPa 248 W/m² 0.0 mm 0.000 mm 19.0 km/h
09:30 -3.9 °C -7.5 °C -14.8 °C 76% 1021.0 hPa 259 W/m² 0.0 mm 0.000 mm 20.2 km/h
09:35 -3.8 °C -7.4 °C -15.8 °C 76% 1021.0 hPa 270 W/m² 0.0 mm 0.000 mm 22.5 km/h
09:40 -3.7 °C -7.3 °C -13.4 °C 76% 1020.9 hPa 281 W/m² 0.0 mm 0.000 mm 18.2 km/h
09:45 -3.7 °C -7.5 °C -14.8 °C 75% 1021.1 hPa 291 W/m² 0.0 mm 0.000 mm 20.7 km/h
09:50 -3.6 °C -7.4 °C -14.4 °C 75% 1021.1 hPa 301 W/m² 0.0 mm 0.000 mm 20.2 km/h
09:55 -3.6 °C -7.5 °C -16.0 °C 74% 1021.0 hPa 310 W/m² 0.0 mm 0.000 mm 23.5 km/h
10:00 -3.4 °C -7.2 °C -15.1 °C 75% 1021.1 hPa 322 W/m² 0.0 mm 0.102 mm 22.1 km/h
10:05 -3.3 °C -7.3 °C -16.0 °C 74% 1021.1 hPa 332 W/m² 0.0 mm 0.000 mm 24.5 km/h
10:10 -3.3 °C -7.3 °C -16.7 °C 74% 1021.1 hPa 340 W/m² 0.0 mm 0.000 mm 26.4 km/h
10:15 -3.2 °C -7.3 °C -16.5 °C 73% 1021.4 hPa 347 W/m² 0.0 mm 0.000 mm 26.1 km/h
10:20 -3.1 °C -7.2 °C -15.7 °C 73% 1021.3 hPa 358 W/m² 0.0 mm 0.000 mm 24.4 km/h
10:25 -2.9 °C -7.0 °C -16.0 °C 73% 1021.4 hPa 367 W/m² 0.0 mm 0.000 mm 26.0 km/h
10:30 -2.7 °C -7.0 °C -13.3 °C 72% 1021.3 hPa 378 W/m² 0.0 mm 0.000 mm 20.3 km/h
10:35 -2.5 °C -6.7 °C -12.2 °C 73% 1021.2 hPa 380 W/m² 0.0 mm 0.000 mm 18.7 km/h
10:40 -2.7 °C -7.0 °C -13.4 °C 72% 1021.3 hPa 390 W/m² 0.0 mm 0.000 mm 20.6 km/h
10:45 -2.6 °C -6.9 °C -15.0 °C 72% 1021.3 hPa 401 W/m² 0.0 mm 0.000 mm 24.3 km/h
10:50 -2.6 °C -7.1 °C -14.6 °C 71% 1021.4 hPa 407 W/m² 0.0 mm 0.000 mm 23.5 km/h
10:55 -2.5 °C -7.0 °C -14.4 °C 71% 1021.6 hPa 421 W/m² 0.0 mm 0.000 mm 23.2 km/h
11:00 -2.5 °C -6.8 °C -15.1 °C 72% 1021.4 hPa 421 W/m² 0.0 mm 0.152 mm 25.1 km/h
11:05 -2.4 °C -7.1 °C -14.1 °C 70% 1021.3 hPa 432 W/m² 0.0 mm 0.000 mm 22.9 km/h
11:10 -2.3 °C -7.0 °C -15.0 °C 70% 1021.4 hPa 437 W/m² 0.0 mm 0.000 mm 25.5 km/h
11:15 -2.3 °C -7.2 °C -14.4 °C 69% 1021.4 hPa 444 W/m² 0.0 mm 0.000 mm 24.0 km/h
11:20 -2.2 °C -6.9 °C -14.8 °C 70% 1021.2 hPa 446 W/m² 0.0 mm 0.000 mm 25.2 km/h
11:25 -2.1 °C -6.8 °C -13.3 °C 70% 1021.4 hPa 457 W/m² 0.0 mm 0.000 mm 22.1 km/h
11:30 -1.9 °C -7.0 °C -12.8 °C 68% 1021.3 hPa 461 W/m² 0.0 mm 0.000 mm 21.4 km/h
11:35 -1.8 °C -6.9 °C -12.4 °C 68% 1021.4 hPa 464 W/m² 0.0 mm 0.000 mm 21.0 km/h
11:40 -1.6 °C -6.5 °C -11.0 °C 69% 1021.4 hPa 467 W/m² 0.0 mm 0.000 mm 18.6 km/h
11:45 -1.6 °C -6.7 °C -10.6 °C 68% 1021.4 hPa 468 W/m² 0.0 mm 0.000 mm 17.8 km/h
11:50 -1.7 °C -7.2 °C -12.9 °C 66% 1021.4 hPa 476 W/m² 0.0 mm 0.000 mm 22.4 km/h
11:55 -1.5 °C -7.0 °C -10.2 °C 66% 1021.3 hPa 484 W/m² 0.0 mm 0.000 mm 17.3 km/h
12:00 -1.5 °C -7.2 °C -10.3 °C 65% 1021.3 hPa 491 W/m² 0.0 mm 0.178 mm 17.5 km/h
12:05 -1.5 °C -7.4 °C -10.2 °C 64% 1021.3 hPa 492 W/m² 0.0 mm 0.000 mm 17.4 km/h
12:10 -1.3 °C -7.0 °C -10.3 °C 65% 1021.3 hPa 488 W/m² 0.0 mm 0.000 mm 18.1 km/h
12:15 -1.6 °C -7.3 °C -12.6 °C 65% 1021.3 hPa 499 W/m² 0.0 mm 0.000 mm 22.0 km/h
12:20 -1.3 °C -7.0 °C -10.2 °C 65% 1021.3 hPa 499 W/m² 0.0 mm 0.000 mm 17.8 km/h
12:25 -1.3 °C -7.0 °C -11.9 °C 65% 1021.2 hPa 498 W/m² 0.0 mm 0.000 mm 21.3 km/h
12:30 -1.2 °C -6.9 °C -10.8 °C 65% 1021.1 hPa 496 W/m² 0.0 mm 0.000 mm 19.2 km/h
12:35 -1.1 °C -7.2 °C -9.7 °C 63% 1021.1 hPa 502 W/m² 0.0 mm 0.000 mm 17.4 km/h
12:40 -0.7 °C -6.4 °C -9.3 °C 65% 1020.9 hPa 502 W/m² 0.0 mm 0.000 mm 17.5 km/h
12:45 -1.0 °C -6.7 °C -11.7 °C 65% 1020.9 hPa 505 W/m² 0.0 mm 0.000 mm 21.6 km/h
12:50 -0.9 °C -7.0 °C -12.0 °C 63% 1020.7 hPa 503 W/m² 0.0 mm 0.000 mm 22.6 km/h
12:55 -1.0 °C -6.9 °C -13.0 °C 64% 1020.8 hPa 502 W/m² 0.0 mm 0.000 mm 24.7 km/h
13:00 -0.8 °C -6.9 °C -11.8 °C 63% 1020.7 hPa 501 W/m² 0.0 mm 0.203 mm 22.5 km/h
13:05 -1.0 °C -7.1 °C -14.7 °C 63% 1020.6 hPa 499 W/m² 0.0 mm 0.000 mm 29.6 km/h
13:10 -0.9 °C -7.0 °C -13.6 °C 63% 1020.5 hPa 498 W/m² 0.0 mm 0.000 mm 26.9 km/h
13:15 -0.6 °C -6.8 °C -12.9 °C 63% 1020.5 hPa 495 W/m² 0.0 mm 0.000 mm 25.9 km/h
13:20 -0.7 °C -6.8 °C -12.2 °C 63% 1020.8 hPa 491 W/m² 0.0 mm 0.000 mm 23.9 km/h
13:25 -0.6 °C -7.0 °C -11.8 °C 62% 1020.7 hPa 487 W/m² 0.0 mm 0.000 mm 23.2 km/h
13:30 -0.5 °C -7.1 °C -12.5 °C 61% 1020.8 hPa 488 W/m² 0.0 mm 0.000 mm 25.2 km/h
13:35 -0.4 °C -7.0 °C -10.2 °C 61% 1020.7 hPa 483 W/m² 0.0 mm 0.000 mm 20.2 km/h
13:40 -0.4 °C -7.0 °C -11.3 °C 61% 1020.8 hPa 478 W/m² 0.0 mm 0.000 mm 22.7 km/h
13:45 -0.3 °C -6.7 °C -11.4 °C 62% 1020.7 hPa 473 W/m² 0.0 mm 0.000 mm 23.2 km/h
13:50 -0.4 °C -6.8 °C -11.6 °C 62% 1020.6 hPa 470 W/m² 0.0 mm 0.000 mm 23.3 km/h
13:55 -0.3 °C -6.9 °C -9.9 °C 61% 1020.5 hPa 464 W/m² 0.0 mm 0.000 mm 19.7 km/h
14:00 -0.3 °C -7.1 °C -11.8 °C 60% 1020.4 hPa 459 W/m² 0.0 mm 0.229 mm 24.2 km/h
14:05 -0.3 °C -7.1 °C -9.2 °C 60% 1020.3 hPa 457 W/m² 0.0 mm 0.000 mm 18.3 km/h
14:10 -0.3 °C -6.9 °C -12.0 °C 61% 1020.2 hPa 452 W/m² 0.0 mm 0.000 mm 24.8 km/h
14:15 -0.2 °C -6.8 °C -11.6 °C 61% 1020.2 hPa 444 W/m² 0.0 mm 0.000 mm 23.9 km/h
14:20 -0.3 °C -6.7 °C -10.6 °C 62% 1020.2 hPa 438 W/m² 0.0 mm 0.000 mm 21.3 km/h
14:25 -0.2 °C -6.6 °C -12.1 °C 62% 1020.0 hPa 433 W/m² 0.0 mm 0.000 mm 25.2 km/h
14:30 -0.1 °C -6.9 °C -12.1 °C 60% 1020.2 hPa 423 W/m² 0.0 mm 0.000 mm 25.7 km/h
14:35 -0.2 °C -6.8 °C -12.6 °C 61% 1020.1 hPa 416 W/m² 0.0 mm 0.000 mm 26.7 km/h
14:40 -0.1 °C -6.9 °C -10.9 °C 60% 1019.8 hPa 408 W/m² 0.0 mm 0.000 mm 22.5 km/h
14:45 0.1 °C -6.5 °C -12.1 °C 61% 1020.1 hPa 402 W/m² 0.0 mm 0.000 mm 26.3 km/h
14:50 -0.1 °C -7.1 °C -12.1 °C 59% 1020.0 hPa 390 W/m² 0.0 mm 0.000 mm 25.8 km/h
14:55 0.1 °C -6.5 °C -10.7 °C 61% 1020.1 hPa 382 W/m² 0.0 mm 0.000 mm 22.8 km/h
15:00 0.0 °C -6.8 °C -12.4 °C 60% 1019.9 hPa 375 W/m² 0.0 mm 0.203 mm 27.0 km/h
15:05 0.2 °C -6.6 °C -11.0 °C 60% 1020.0 hPa 365 W/m² 0.0 mm 0.000 mm 23.7 km/h
15:10 0.1 °C -6.9 °C -10.9 °C 59% 1020.0 hPa 354 W/m² 0.0 mm 0.000 mm 23.3 km/h
15:15 0.2 °C -6.6 °C -9.9 °C 60% 1020.0 hPa 343 W/m² 0.0 mm 0.000 mm 21.2 km/h
15:20 0.4 °C -6.4 °C -10.2 °C 60% 1020.2 hPa 337 W/m² 0.0 mm 0.000 mm 22.4 km/h
15:25 0.3 °C -6.8 °C -10.7 °C 59% 1020.0 hPa 327 W/m² 0.0 mm 0.000 mm 23.5 km/h
15:30 0.2 °C -7.3 °C -12.2 °C 57% 1020.0 hPa 314 W/m² 0.0 mm 0.000 mm 27.1 km/h
15:35 0.3 °C -7.0 °C -10.5 °C 58% 1020.2 hPa 303 W/m² 0.0 mm 0.000 mm 22.8 km/h
15:40 0.4 °C -6.9 °C -9.2 °C 58% 1020.1 hPa 292 W/m² 0.0 mm 0.000 mm 20.2 km/h
15:45 0.4 °C -7.1 °C -11.5 °C 57% 1020.1 hPa 284 W/m² 0.0 mm 0.000 mm 25.8 km/h
15:50 0.4 °C -7.1 °C -10.9 °C 57% 1020.0 hPa 273 W/m² 0.0 mm 0.000 mm 24.3 km/h
15:55 0.4 °C -6.9 °C -8.1 °C 58% 1020.0 hPa 260 W/m² 0.0 mm 0.000 mm 18.0 km/h
16:00 0.5 °C -7.2 °C -9.2 °C 56% 1019.9 hPa 251 W/m² 0.0 mm 0.178 mm 20.4 km/h
16:05 0.4 °C -6.9 °C -9.3 °C 58% 1019.9 hPa 240 W/m² 0.0 mm 0.000 mm 20.4 km/h
16:10 0.4 °C -7.3 °C -8.2 °C 56% 1020.0 hPa 226 W/m² 0.0 mm 0.000 mm 18.2 km/h
16:15 0.4 °C -7.1 °C -9.3 °C 57% 1019.9 hPa 213 W/m² 0.0 mm 0.000 mm 20.5 km/h
16:20 0.4 °C -7.1 °C -9.9 °C 57% 1019.9 hPa 203 W/m² 0.0 mm 0.000 mm 21.8 km/h
16:25 0.4 °C -7.3 °C -8.9 °C 56% 1020.1 hPa 188 W/m² 0.0 mm 0.000 mm 19.6 km/h
16:30 0.3 °C -7.7 °C -10.4 °C 55% 1020.0 hPa 177 W/m² 0.0 mm 0.000 mm 22.6 km/h
16:35 0.3 °C -7.4 °C -11.4 °C 56% 1020.0 hPa 164 W/m² 0.0 mm 0.000 mm 25.3 km/h
16:40 0.3 °C -7.4 °C -10.9 °C 56% 1020.0 hPa 149 W/m² 0.0 mm 0.000 mm 24.0 km/h
16:45 0.3 °C -7.4 °C -10.7 °C 56% 1020.1 hPa 135 W/m² 0.0 mm 0.000 mm 23.4 km/h
16:50 0.2 °C -7.5 °C -9.5 °C 56% 1020.1 hPa 121 W/m² 0.0 mm 0.000 mm 20.2 km/h
16:55 0.2 °C -7.3 °C -8.8 °C 57% 1020.1 hPa 109 W/m² 0.0 mm 0.000 mm 18.7 km/h
17:00 0.2 °C -7.3 °C -9.7 °C 57% 1020.1 hPa 96 W/m² 0.0 mm 0.127 mm 20.8 km/h